Time;durP1;ratioP1;P1;durP2;ratioP2;P2;SDS_P1;SDS_P2;PMS_P1;PMS_P2;Temp;Humidity;BMP_temperature;BMP_pressure;BME280_temperature;BME280_humidity;BME280_pressure;Samples;Min_cycle;Max_cycle;Signal;HPM_P1;HPM_P2
2022/04/23 00:02:09;;;;;;;56.60;23.20;;;;;;;3.96;69.00;98435.77;103521;1303;545553;-89
2022/04/23 00:05:19;;;;;;;;;;;;;;;;;;;;;
2022/04/23 00:09:00;;;;;;;;;;;;;;;;;;;;;
2022/04/23 00:13:07;;;;;;;35.50;16.90;;;;;;;3.56;69.33;98439.59;105140;1289;23054;-89
2022/04/23 00:16:20;;;;;;;;;;;;;;;;;;;;;
2022/04/23 00:19:54;;;;;;;;;;;;;;;;;;;;;
2022/04/23 00:23:31;;;;;;;;;;;;;;;;;;;;;
2022/04/23 00:27:26;;;;;;;;;;;;;;;;;;;;;
2022/04/23 00:35:15;;;;;;;37.40;19.40;;;;;;;3.11;70.00;98445.77;104232;1298;25328;-87
2022/04/23 00:38:52;;;;;;;39.50;20.90;;;;;;;3.06;69.87;98446.23;103578;1304;22584;-88
2022/04/23 00:46:17;;;;;;;35.80;17.20;;;;;;;3.01;70.18;98446.48;103066;1307;24416;-88
2022/04/23 00:53:51;;;;;;;39.80;19.60;;;;;;;2.92;70.28;98440.09;102221;1322;22785;-87
2022/04/23 01:01:24;;;;;;;38.80;20.10;;;;;;;2.92;70.21;98441.13;102823;1312;545308;-88
2022/04/23 01:08:04;;;;;;;;;;;;;;;;;;;;;
2022/04/23 01:15:15;;;;;;;;;;;;;;;;;;;;;
2022/04/23 01:30:31;;;;;;;;;;;;;;;;;;;;;
2022/04/23 01:34:11;;;;;;;;;;;;;;;;;;;;;
2022/04/23 02:00:59;;;;;;;;;;;;;;;;;;;;;
2022/04/23 02:12:20;;;;;;;;;;;;;;;;;;;;;
2022/04/23 02:16:06;;;;;;;;;;;;;;;;;;;;;
2022/04/23 02:24:22;;;;;;;37.50;19.00;;;;;;;2.05;71.10;98425.92;102861;1308;547222;-90
2022/04/23 02:31:57;;;;;;;34.60;19.70;;;;;;;1.91;71.13;98431.52;103516;1306;22719;-90
2022/04/23 02:35:31;;;;;;;;;;;;;;;;;;;;;
2022/04/23 02:39:16;;;;;;;;;;;;;;;;;;;;;
2022/04/23 02:43:17;;;;;;;42.70;22.60;;;;;;;1.64;71.31;98430.34;101910;1322;23088;-87
2022/04/23 02:59:03;;;;;;;34.80;18.40;;;;;;;1.48;71.36;98439.13;104667;1292;22558;-87
2022/04/23 03:06:22;;;;;;;;;;;;;;;;;;;;;
2022/04/23 03:17:57;;;;;;;39.50;20.50;;;;;;;1.19;71.67;98448.98;102887;1313;26997;-86
2022/04/23 03:21:44;;;;;;;33.70;17.30;;;;;;;1.25;72.13;98453.63;102463;1319;25299;-85
2022/04/23 03:29:39;;;;;;;33.30;17.80;;;;;;;1.11;71.37;98448.81;102824;1312;545013;-85
2022/04/23 03:48:22;;;;;;;;;;;;;;;;;;;;;
2022/04/23 03:52:00;;;;;;;;;;;;;;;;;;;;;
2022/04/23 03:59:54;;;;;;;46.50;23.30;;;;;;;0.63;72.13;98471.20;105717;1284;23426;-86
2022/04/23 04:06:40;;;;;;;;;;;;;;;;;;;;;
2022/04/23 04:10:13;;;;;;;;;;;;;;;;;;;;;
2022/04/23 04:14:27;;;;;;;57.40;24.50;;;;;;;0.98;72.61;98470.79;105074;1289;24271;-89
2022/04/23 04:18:13;;;;;;;42.90;18.50;;;;;;;1.16;72.63;98468.80;103917;1301;24336;-85
2022/04/23 04:21:38;;;;;;;;;;;;;;;;;;;;;
2022/04/23 04:25:13;;;;;;;;;;;;;;;;;;;;;
2022/04/23 04:29:23;;;;;;;44.60;22.20;;;;;;;1.68;72.35;98469.42;101843;1325;25349;-84
2022/04/23 04:32:56;;;;;;;;;;;;;;;;;;;;;
2022/04/23 04:44:37;;;;;;;46.50;21.50;;;;;;;2.87;72.36;98462.52;103493;1303;22574;-88
2022/04/23 04:56:15;;;;;;;;;;;;;;;;;;;;;
2022/04/23 05:04:27;;;;;;;;;;;;;;;;;;;;;
2022/04/23 05:08:57;;;;;;;48.40;23.90;;;;;;;4.73;71.34;98459.80;104136;1295;24198;-90
2022/04/23 05:16:27;;;;;;;;;;;;;;;;;;;;;
2022/04/23 05:24:35;;;;;;;61.30;31.80;;;;;;;6.14;71.07;98469.63;101570;1327;24372;-90
2022/04/23 05:28:34;;;;;;;;;;;;;;;;;;;;;
2022/04/23 05:32:10;;;;;;;;;;;;;;;;;;;;;
2022/04/23 05:36:07;;;;;;;;;;;;;;;;;;;;;
2022/04/23 05:40:25;;;;;;;54.90;24.20;;;;;;;7.79;70.26;98473.84;103430;1309;546055;-91
2022/04/23 05:44:09;;;;;;;;;;;;;;;;;;;;;
2022/04/23 06:00:26;;;;;;;;;;;;;;;;;;;;;
2022/04/23 06:08:59;;;;;;;;;;;;;;;;;;;;;
2022/04/23 06:12:53;;;;;;;;;;;;;;;;;;;;;
2022/04/23 06:16:49;;;;;;;30.00;17.60;;;;;;;9.94;68.93;98486.95;103382;1309;545883;-90
2022/04/23 06:32:47;;;;;;;;;;;;;;;;;;;;;
2022/04/23 06:44:45;;;;;;;;;;;;;;;;;;;;;
2022/04/23 06:56:38;;;;;;;;;;;;;;;;;;;;;
2022/04/23 07:00:31;;;;;;;;;;;;;;;;;;;;;
2022/04/23 07:04:08;;;;;;;;;;;;;;;;;;;;;
2022/04/23 07:08:01;;;;;;;;;;;;;;;;;;;;;
2022/04/23 07:11:54;;;;;;;15.30;9.80;;;;;;;12.51;67.75;98469.13;105365;1294;23024;-92
2022/04/23 07:19:11;;;;;;;;;;;;;;;;;;;;;
2022/04/23 07:26:06;;;;;;;14.60;9.30;;;;;;;13.05;67.50;98468.34;104389;1309;546081;-90
2022/04/23 07:29:17;;;;;;;15.20;9.90;;;;;;;13.30;67.70;98469.81;106934;1286;22818;-93
2022/04/23 07:32:26;;;;;;;;;;;;;;;;;;;;;
2022/04/23 07:39:06;;;;;;;12.70;7.70;;;;;;;13.78;66.97;98475.36;106525;1289;22580;-90
2022/04/23 07:42:12;;;;;;;;;;;;;;;;;;;;;
2022/04/23 07:44:54;;;;;;;14.40;8.80;;;;;;;13.97;66.48;98470.45;104624;1295;23165;-90
2022/04/23 07:47:21;;;;;;;12.30;7.80;;;;;;;14.04;66.02;98463.67;104872;1289;24254;-86
2022/04/23 07:50:20;;;;;;;14.00;8.90;;;;;;;14.14;66.26;98462.24;104816;1289;24153;-89
2022/04/23 07:53:11;;;;;;;13.40;8.40;;;;;;;14.23;65.63;98462.30;105006;1289;22580;-90
2022/04/23 07:56:07;;;;;;;13.40;7.90;;;;;;;14.12;65.06;98460.28;104826;1289;24231;-87
2022/04/23 07:58:45;;;;;;;12.10;8.10;;;;;;;14.13;65.66;98463.21;104992;1289;22553;-89
2022/04/23 08:01:36;;;;;;;16.90;9.90;;;;;;;14.23;65.67;98462.47;105178;1289;24276;-91
2022/04/23 08:04:15;;;;;;;17.70;10.00;;;;;;;14.35;65.36;98461.83;104573;1289;22992;-93
2022/04/23 08:06:56;;;;;;;15.40;9.70;;;;;;;14.43;65.44;98462.66;104932;1289;24565;-89
2022/04/23 08:09:53;;;;;;;;;;;;;;;;;;;;;
2022/04/23 08:12:54;;;;;;;14.70;9.30;;;;;;;14.50;64.32;98461.05;105086;1285;22541;-87
2022/04/23 08:15:43;;;;;;;12.80;8.10;;;;;;;14.27;64.59;98461.71;104992;1288;22848;-84
2022/04/23 08:18:29;;;;;;;;;;;;;;;;;;;;;
2022/04/23 08:21:10;;;;;;;13.70;9.20;;;;;;;14.79;65.31;98459.29;105819;1277;22663;-84
2022/04/23 08:23:43;;;;;;;13.40;8.60;;;;;;;14.95;65.08;98457.92;105813;1277;24368;-83
2022/04/23 08:26:13;;;;;;;11.90;7.50;;;;;;;15.08;64.54;98460.32;105894;1277;22653;-85
2022/04/23 08:32:11;;;;;;;12.90;7.70;;;;;;;15.19;64.69;98455.31;105835;1277;22719;-85
2022/04/23 08:35:01;;;;;;;13.70;8.10;;;;;;;15.30;64.47;98455.61;105905;1277;25268;-83
2022/04/23 08:37:28;;;;;;;12.00;7.70;;;;;;;15.35;63.41;98451.30;105701;1280;22661;-88
2022/04/23 08:40:14;;;;;;;12.10;7.70;;;;;;;15.19;63.60;98448.27;105741;1280;24247;-82
2022/04/23 08:42:57;;;;;;;13.60;7.50;;;;;;;15.16;63.46;98447.40;105703;1280;24005;-83
2022/04/23 08:45:40;;;;;;;15.20;8.40;;;;;;;14.94;62.13;98447.29;105681;1280;22544;-84
2022/04/23 08:48:25;;;;;;;11.40;7.10;;;;;;;14.47;63.27;98450.11;105683;1280;22612;-82
2022/04/23 08:51:21;;;;;;;12.20;7.30;;;;;;;14.79;64.24;98447.28;105716;1278;25242;-85
2022/04/23 08:54:05;;;;;;;12.20;7.50;;;;;;;15.15;63.85;98444.04;105707;1278;22544;-83
2022/04/23 08:56:56;;;;;;;10.80;6.80;;;;;;;15.40;63.87;98443.84;105852;1280;22719;-84
2022/04/23 08:59:34;;;;;;;11.30;6.30;;;;;;;15.49;63.52;98440.73;105850;1278;25311;-83
2022/04/23 09:02:22;;;;;;;10.90;6.70;;;;;;;15.64;63.51;98441.44;105890;1277;25235;-84
2022/04/23 09:05:27;;;;;;;14.20;7.10;;;;;;;15.88;63.37;98440.55;105801;1277;22631;-83
2022/04/23 09:08:05;;;;;;;10.10;6.30;;;;;;;15.96;62.58;98438.11;105803;1278;25401;-83
2022/04/23 09:11:01;;;;;;;9.20;5.50;;;;;;;15.88;62.85;98441.25;105865;1278;22640;-84
2022/04/23 09:13:31;;;;;;;11.10;6.90;;;;;;;15.85;62.54;98441.64;105981;1280;24073;-83
2022/04/23 09:25:41;;;;;;;9.80;6.10;;;;;;;16.43;62.50;98434.80;105145;1286;22557;-83
2022/04/23 09:28:35;;;;;;;10.50;7.10;;;;;;;16.34;62.10;98432.11;105129;1284;26576;-87
2022/04/23 09:31:15;;;;;;;10.20;6.40;;;;;;;15.95;60.80;98425.31;105117;1284;22606;-84
2022/04/23 09:34:26;;;;;;;;;;;;;;;;;;;;;
2022/04/23 09:37:25;;;;;;;15.80;8.50;;;;;;;15.92;61.14;98421.25;105463;1284;22590;-84
2022/04/23 09:40:47;;;;;;;;;;;;;;;;;;;;;
2022/04/23 09:43:44;;;;;;;12.30;8.10;;;;;;;16.62;61.73;98417.60;105589;1286;22577;-85
2022/04/23 09:46:30;;;;;;;11.00;6.70;;;;;;;16.76;61.34;98418.89;105167;1284;22554;-85
2022/04/23 09:49:43;;;;;;;15.00;8.80;;;;;;;16.84;61.09;98417.21;105554;1282;22558;-86
2022/04/23 09:53:13;;;;;;;11.60;7.20;;;;;;;17.00;61.44;98411.92;105714;1281;22541;-82
2022/04/23 09:56:00;;;;;;;11.60;7.00;;;;;;;17.14;60.77;98411.32;105352;1285;24554;-84
2022/04/23 09:59:14;;;;;;;10.50;6.70;;;;;;;17.15;61.00;98404.51;105159;1285;22573;-83
2022/04/23 10:01:56;;;;;;;12.00;7.40;;;;;;;17.36;60.64;98405.46;105408;1281;22537;-86
2022/04/23 10:04:33;;;;;;;13.80;7.10;;;;;;;17.29;59.99;98405.23;105587;1281;23040;-82
2022/04/23 10:07:12;;;;;;;11.50;6.80;;;;;;;17.29;60.23;98405.39;105764;1282;24384;-84
2022/04/23 10:10:13;;;;;;;;;;;;;;;;;;;;;
2022/04/23 10:13:15;;;;;;;13.60;7.10;;;;;;;17.50;60.21;98401.42;105757;1281;22569;-84
2022/04/23 10:16:23;;;;;;;12.80;7.10;;;;;;;17.65;60.20;98402.75;105764;1281;25345;-83
2022/04/23 10:18:51;;;;;;;11.60;7.10;;;;;;;17.75;59.78;98403.89;105743;1281;25581;-82
2022/04/23 10:21:43;;;;;;;11.00;7.30;;;;;;;17.86;60.12;98398.66;105420;1284;22853;-85
2022/04/23 10:24:16;;;;;;;10.90;7.40;;;;;;;17.87;59.33;98404.94;105665;1281;24274;-84
2022/04/23 10:27:44;;;;;;;12.60;8.40;;;;;;;17.75;58.91;98400.00;105458;1281;22755;-82
2022/04/23 10:30:09;;;;;;;;;;;;;;;;;;;;;
2022/04/23 10:33:57;;;;;;;;;;;;;;;;;;;;;
2022/04/23 10:36:41;;;;;;;;;;;;;;;;;;;;;
2022/04/23 10:39:48;;;;;;;;;;;;;;;;;;;;;
2022/04/23 10:44:04;;;;;;;15.50;11.40;;;;;;;17.88;59.21;98396.61;105643;1280;24227;-87
2022/04/23 10:46:46;;;;;;;12.90;8.40;;;;;;;18.22;59.33;98391.15;105365;1286;24241;-86
2022/04/23 10:49:39;;;;;;;16.80;8.80;;;;;;;18.28;58.30;98387.20;105301;1285;25250;-80
2022/04/23 10:52:44;;;;;;;10.60;6.90;;;;;;;18.28;58.46;98386.37;105327;1286;22558;-85
2022/04/23 10:56:13;;;;;;;13.00;8.30;;;;;;;18.46;58.42;98375.92;104637;1291;22570;-86
2022/04/23 10:59:42;;;;;;;10.60;6.30;;;;;;;18.64;58.39;98373.89;104482;1292;22575;-85
2022/04/23 11:02:46;;;;;;;;;;;;;;;;;;;;;
2022/04/23 11:14:28;;;;;;;20.70;9.90;;;;;;;18.63;55.95;98366.02;104616;1287;23470;-82
2022/04/23 11:16:43;;;;;;;11.50;6.70;;;;;;;18.16;56.65;98363.96;103965;1294;25608;-83
2022/04/23 11:19:52;;;;;;;;;;;;;;;;;;;;;
2022/04/23 11:22:52;;;;;;;;;;;;;;;;;;;;;
2022/04/23 11:26:14;;;;;;;13.70;7.50;;;;;;;18.40;56.46;98351.08;104610;1290;24297;-84
2022/04/23 11:29:27;;;;;;;14.70;9.00;;;;;;;18.42;56.29;98349.31;104820;1288;24299;-80
2022/04/23 11:32:27;;;;;;;14.70;7.90;;;;;;;18.62;56.52;98347.90;104979;1285;22568;-86
2022/04/23 11:35:12;;;;;;;11.80;7.50;;;;;;;18.95;56.68;98353.45;105522;1282;24390;-82
2022/04/23 11:38:26;;;;;;;10.90;7.60;;;;;;;19.09;56.21;98353.64;105248;1284;22596;-84
2022/04/23 11:41:27;;;;;;;12.50;7.80;;;;;;;19.35;56.37;98344.79;105484;1285;22593;-83
2022/04/23 11:43:57;;;;;;;10.60;7.40;;;;;;;19.58;56.07;98337.33;105592;1281;22673;-83
2022/04/23 11:46:50;;;;;;;12.60;8.20;;;;;;;19.85;56.17;98333.95;105222;1281;23987;-82
2022/04/23 11:49:37;;;;;;;10.60;7.10;;;;;;;20.29;55.98;98331.98;105549;1281;25415;-83
2022/04/23 11:52:17;;;;;;;11.60;7.20;;;;;;;20.58;55.72;98327.81;105485;1281;22569;-85
2022/04/23 11:55:11;;;;;;;12.30;8.10;;;;;;;20.61;55.08;98327.50;106030;1277;24303;-81
2022/04/23 11:57:40;;;;;;;12.30;8.60;;;;;;;20.35;55.01;98328.09;106047;1274;22540;-85
2022/04/23 12:00:49;;;;;;;13.70;8.50;;;;;;;20.11;55.07;98325.02;106045;1275;26916;-83
2022/04/23 12:03:46;;;;;;;16.40;11.30;;;;;;;19.32;54.75;98331.57;105985;1274;24260;-83
2022/04/23 12:06:26;;;;;;;12.40;8.30;;;;;;;18.72;54.99;98333.61;106035;1274;24399;-83
2022/04/23 12:09:11;;;;;;;11.40;7.20;;;;;;;18.29;54.50;98330.68;106158;1274;24243;-82
2022/04/23 12:12:06;;;;;;;;;;;;;;;;;;;;;
2022/04/23 12:15:06;;;;;;;14.80;9.80;;;;;;;17.75;53.33;98321.09;106018;1274;25236;-81
2022/04/23 12:18:14;;;;;;;11.80;8.00;;;;;;;17.87;54.59;98325.57;105913;1275;22560;-83
2022/04/23 12:20:45;;;;;;;15.30;10.80;;;;;;;18.21;54.70;98315.75;105926;1275;22820;-84
2022/04/23 12:23:12;;;;;;;10.20;6.40;;;;;;;18.53;54.15;98309.34;105949;1275;22514;-82
2022/04/23 12:26:18;;;;;;;12.20;8.10;;;;;;;18.58;53.63;98305.50;105934;1277;23921;-83
2022/04/23 12:42:38;;;;;;;14.10;8.50;;;;;;;19.07;53.13;98281.53;105991;1274;22647;-81
2022/04/23 12:45:44;;;;;;;15.80;9.20;;;;;;;18.56;52.89;98281.22;105899;1274;22541;-84
2022/04/23 12:48:44;;;;;;;50.80;29.40;;;;;;;18.04;53.47;98283.66;106047;1274;25383;-83
2022/04/23 12:52:15;;;;;;;22.30;12.80;;;;;;;18.20;53.78;98281.06;106123;1274;22636;-81
2022/04/23 12:54:39;;;;;;;15.40;6.90;;;;;;;18.41;53.32;98276.64;106270;1275;23934;-85
2022/04/23 12:57:32;;;;;;;33.50;18.20;;;;;;;18.22;52.46;98279.40;106015;1277;25579;-79
2022/04/23 13:00:02;;;;;;;17.20;9.50;;;;;;;18.08;52.70;98277.73;106096;1274;24391;-83
2022/04/23 13:02:43;;;;;;;12.40;7.00;;;;;;;18.27;53.36;98273.16;106029;1275;22540;-81
2022/04/23 13:05:30;;;;;;;8.60;5.00;;;;;;;18.62;53.02;98268.77;106011;1275;23969;-81
2022/04/23 13:11:27;;;;;;;22.30;14.00;;;;;;;18.65;52.90;98258.58;106132;1274;23939;-84
2022/04/23 13:14:04;;;;;;;20.10;10.50;;;;;;;18.84;52.63;98257.52;106255;1274;26212;-84
2022/04/23 13:16:43;;;;;;;11.20;6.40;;;;;;;18.97;52.54;98247.29;106157;1274;22792;-83
2022/04/23 13:19:15;;;;;;;15.30;9.20;;;;;;;19.13;52.66;98246.63;106326;1274;22833;-84
2022/04/23 13:22:05;;;;;;;24.90;13.90;;;;;;;19.25;52.20;98251.05;105943;1275;23937;-81
2022/04/23 13:24:32;;;;;;;26.40;13.50;;;;;;;18.88;51.84;98250.05;106034;1275;22730;-82
2022/04/23 13:27:07;;;;;;;18.00;9.60;;;;;;;18.60;51.95;98246.63;106084;1273;25420;-85
2022/04/23 13:29:39;;;;;;;11.50;7.30;;;;;;;18.54;51.98;98243.70;106369;1274;22578;-78
2022/04/23 13:32:07;;;;;;;10.00;5.50;;;;;;;18.52;51.95;98239.70;106275;1274;22672;-84
2022/04/23 13:34:34;;;;;;;9.50;5.80;;;;;;;18.55;51.85;98236.27;106032;1275;22560;-83
2022/04/23 13:37:13;;;;;;;9.90;6.00;;;;;;;18.59;51.83;98237.41;105986;1275;22563;-84
2022/04/23 13:39:46;;;;;;;14.20;8.10;;;;;;;18.67;52.02;98235.40;106030;1274;25257;-82
2022/04/23 13:42:14;;;;;;;11.00;6.10;;;;;;;18.86;51.85;98225.89;105962;1274;25290;-84
2022/04/23 13:44:42;;;;;;;16.80;10.20;;;;;;;18.98;51.85;98224.48;106111;1274;22773;-86
2022/04/23 13:47:16;;;;;;;9.00;5.70;;;;;;;19.16;51.57;98221.34;106147;1274;24262;-82
2022/04/23 13:49:44;;;;;;;11.50;6.10;;;;;;;19.33;51.42;98217.89;106022;1275;22552;-82
2022/04/23 13:52:11;;;;;;;50.30;29.30;;;;;;;19.48;51.53;98212.48;105996;1274;24399;-85
2022/04/23 13:54:40;;;;;;;17.80;12.10;;;;;;;19.52;50.35;98216.88;106036;1273;25307;-82
2022/04/23 13:57:07;;;;;;;11.10;6.90;;;;;;;19.18;50.55;98214.50;106036;1277;25153;-82
2022/04/23 13:59:35;;;;;;;16.40;10.60;;;;;;;18.87;50.77;98211.98;106109;1273;25702;-83
2022/04/23 14:10:47;;;;;;;11.10;6.80;;;;;;;18.02;51.19;98203.92;106069;1275;22649;-84
2022/04/23 14:13:27;;;;;;;20.20;9.20;;;;;;;18.06;50.84;98201.48;106135;1274;24376;-84
2022/04/23 14:16:31;;;;;;;16.70;8.20;;;;;;;17.83;50.79;98202.59;106232;1274;25525;-82
2022/04/23 14:19:17;;;;;;;23.40;13.50;;;;;;;17.60;50.81;98198.02;106180;1274;24247;-85
2022/04/23 14:22:01;;;;;;;;;;;;;;;;;;;;;
2022/04/23 14:24:37;;;;;;;12.50;6.50;;;;;;;17.55;50.21;98192.73;106060;1274;22562;-87
2022/04/23 14:27:15;;;;;;;12.80;6.30;;;;;;;17.42;49.48;98189.76;106381;1273;24242;-84
2022/04/23 14:30:50;;;;;;;17.40;11.40;;;;;;;17.50;50.44;98192.27;106252;1274;22554;-85
2022/04/23 14:33:53;;;;;;;13.90;8.10;;;;;;;17.87;50.28;98186.48;106269;1273;25541;-83
2022/04/23 14:36:20;;;;;;;9.10;5.70;;;;;;;18.09;50.25;98186.90;106361;1274;24284;-83
2022/04/23 14:39:07;;;;;;;8.30;4.40;;;;;;;18.29;50.20;98183.89;106069;1274;24301;-87
2022/04/23 14:41:53;;;;;;;15.40;7.50;;;;;;;18.38;49.49;98186.86;105995;1275;22810;-86
2022/04/23 14:44:20;;;;;;;9.00;5.50;;;;;;;18.66;49.75;98184.33;106108;1274;25360;-84
2022/04/23 14:47:00;;;;;;;9.70;5.40;;;;;;;18.87;49.82;98176.41;106073;1274;25400;-81
2022/04/23 14:49:35;;;;;;;8.70;5.50;;;;;;;19.14;49.45;98174.22;105957;1274;22552;-85
2022/04/23 14:55:09;;;;;;;10.60;5.60;;;;;;;19.46;49.29;98166.36;106117;1274;22671;-82
2022/04/23 14:57:45;;;;;;;13.10;8.30;;;;;;;19.19;48.55;98167.59;106040;1274;22846;-82
2022/04/23 15:00:17;;;;;;;15.30;10.20;;;;;;;18.57;48.61;98172.98;106265;1274;24254;-85
2022/04/23 15:03:01;;;;;;;;;;;;;;;;;;;;;
2022/04/23 15:05:51;;;;;;;17.30;10.60;;;;;;;18.03;49.25;98172.45;106198;1274;22623;-85
2022/04/23 15:08:41;;;;;;;15.00;8.60;;;;;;;17.81;49.13;98168.49;106527;1273;25369;-82
2022/04/23 15:11:36;;;;;;;11.90;5.90;;;;;;;17.56;49.11;98173.06;106284;1275;22553;-84
2022/04/23 15:14:20;;;;;;;11.10;6.30;;;;;;;17.43;49.30;98173.62;106524;1274;25219;-81
2022/04/23 15:16:53;;;;;;;16.40;8.80;;;;;;;17.93;48.99;98171.77;106316;1273;22579;-83
2022/04/23 15:19:57;;;;;;;;;;;;;;;;;;;;;
2022/04/23 15:22:48;;;;;;;10.80;6.40;;;;;;;19.20;48.88;98162.11;106352;1274;24237;-83
2022/04/23 15:25:41;;;;;;;8.80;5.60;;;;;;;19.14;48.25;98162.45;106064;1274;22550;-82
2022/04/23 15:28:14;;;;;;;10.20;5.90;;;;;;;18.66;48.36;98162.90;106239;1274;22616;-85
2022/04/23 15:30:52;;;;;;;9.80;6.20;;;;;;;18.16;48.31;98167.48;106050;1274;22558;-82
2022/04/23 15:33:44;;;;;;;9.30;6.20;;;;;;;17.73;48.47;98169.31;106045;1274;25416;-81
2022/04/23 15:36:17;;;;;;;11.00;6.80;;;;;;;17.28;48.41;98170.68;106040;1274;22760;-85
2022/04/23 15:39:05;;;;;;;10.40;6.10;;;;;;;17.04;48.67;98175.80;106058;1274;22573;-84
2022/04/23 15:42:09;;;;;;;;;;;;;;;;;;;;;
2022/04/23 15:45:02;;;;;;;10.50;6.30;;;;;;;16.77;48.63;98168.71;105971;1276;22575;-83
2022/04/23 15:47:34;;;;;;;11.90;7.10;;;;;;;16.73;48.81;98164.16;106029;1274;22589;-84
2022/04/23 15:50:08;;;;;;;11.10;6.90;;;;;;;16.81;48.83;98162.89;106189;1274;22628;-84
2022/04/23 15:52:55;;;;;;;11.10;6.80;;;;;;;17.41;48.45;98153.57;105977;1274;25240;-83
2022/04/23 15:55:22;;;;;;;11.20;7.50;;;;;;;17.39;48.43;98151.58;105955;1274;22585;-83
2022/04/23 15:57:51;;;;;;;10.80;6.50;;;;;;;17.18;48.46;98149.85;106063;1274;22564;-84
2022/04/23 16:00:18;;;;;;;10.70;6.50;;;;;;;17.13;48.39;98153.27;106027;1274;24258;-83
2022/04/23 16:05:47;;;;;;;9.50;5.40;;;;;;;18.34;47.70;98148.48;106084;1274;24269;-86
2022/04/23 16:08:22;;;;;;;15.60;8.80;;;;;;;18.76;47.33;98149.09;106088;1273;22561;-84
2022/04/23 16:10:58;;;;;;;32.40;14.70;;;;;;;18.60;46.88;98150.62;106228;1274;22566;-83
2022/04/23 16:13:32;;;;;;;26.50;13.00;;;;;;;18.11;47.34;98149.73;106164;1273;26475;-84
2022/04/23 16:16:11;;;;;;;15.90;7.90;;;;;;;17.79;47.75;98153.20;105974;1274;24251;-84
2022/04/23 16:18:53;;;;;;;12.40;7.20;;;;;;;17.65;47.87;98153.68;106103;1273;25229;-85
2022/04/23 16:21:26;;;;;;;13.00;7.30;;;;;;;17.59;47.95;98151.69;105987;1274;22538;-83
2022/04/23 16:23:53;;;;;;;16.30;8.20;;;;;;;17.48;47.93;98154.55;105999;1274;22653;-84
2022/04/23 16:26:23;;;;;;;14.40;6.40;;;;;;;17.43;48.16;98150.05;106167;1274;22565;-84
2022/04/23 16:28:55;;;;;;;11.70;7.30;;;;;;;17.42;48.02;98149.15;106057;1274;22751;-83
2022/04/23 16:31:23;;;;;;;15.10;8.00;;;;;;;17.30;48.06;98151.90;106269;1274;22647;-81
2022/04/23 16:33:56;;;;;;;15.60;9.40;;;;;;;17.20;47.87;98153.33;106080;1274;22851;-83
2022/04/23 16:48:47;;;;;;;10.90;6.30;;;;;;;16.28;47.32;98163.20;106023;1274;24306;-83
2022/04/23 16:51:34;;;;;;;14.20;6.40;;;;;;;16.08;47.58;98163.89;106230;1274;22673;-83
2022/04/23 16:54:15;;;;;;;10.80;5.90;;;;;;;15.97;47.58;98167.11;106082;1274;24202;-83
2022/04/23 16:56:52;;;;;;;;;;;;;;;;;;;;;
2022/04/23 16:59:56;;;;;;;10.90;5.90;;;;;;;15.84;47.90;98166.39;106153;1273;22691;-84
2022/04/23 17:02:23;;;;;;;10.30;6.70;;;;;;;15.73;48.00;98165.62;106186;1274;23900;-82
2022/04/23 17:05:01;;;;;;;11.00;5.90;;;;;;;15.60;48.00;98161.16;106097;1274;22560;-86
2022/04/23 17:07:40;;;;;;;10.90;6.30;;;;;;;15.47;48.01;98161.58;106337;1273;22771;-84
2022/04/23 17:10:10;;;;;;;12.70;6.70;;;;;;;15.30;47.98;98161.16;105998;1274;22568;-87
2022/04/23 17:12:45;;;;;;;11.80;6.80;;;;;;;15.17;47.96;98161.46;106010;1273;25511;-83
2022/04/23 17:15:25;;;;;;;10.10;6.20;;;;;;;15.05;48.08;98160.80;106244;1273;22619;-83
2022/04/23 17:18:02;;;;;;;11.60;7.00;;;;;;;14.95;48.11;98164.38;106017;1273;22892;-82
2022/04/23 17:20:46;;;;;;;13.70;7.20;;;;;;;14.82;48.10;98170.66;106020;1274;25238;-81
2022/04/23 17:23:22;;;;;;;12.00;6.80;;;;;;;14.70;48.14;98168.13;106087;1274;25232;-82
2022/04/23 17:25:52;;;;;;;11.30;7.10;;;;;;;14.63;48.32;98167.34;106043;1274;22550;-82
2022/04/23 17:28:52;;;;;;;12.00;6.90;;;;;;;14.54;48.37;98168.39;106121;1274;25346;-82
2022/04/23 17:31:37;;;;;;;11.70;7.20;;;;;;;14.44;48.34;98167.27;106061;1274;25539;-85
2022/04/23 17:34:12;;;;;;;11.90;6.70;;;;;;;14.35;48.30;98169.76;106258;1274;24280;-84
2022/04/23 17:36:52;;;;;;;11.30;6.90;;;;;;;14.25;48.27;98169.88;106051;1274;22548;-85
2022/04/23 17:40:13;;;;;;;12.80;7.50;;;;;;;14.15;48.16;98172.88;106092;1273;22565;-85
2022/04/23 17:42:31;;;;;;;13.20;7.30;;;;;;;13.99;48.20;98171.48;106245;1273;23156;-84
2022/04/23 17:45:05;;;;;;;13.70;7.30;;;;;;;13.84;48.23;98173.80;105958;1274;24191;-85
2022/04/23 17:47:32;;;;;;;14.80;7.80;;;;;;;13.68;48.40;98168.95;106051;1274;22707;-83
2022/04/23 17:50:02;;;;;;;13.90;8.30;;;;;;;13.52;48.34;98167.02;106059;1274;22596;-83
2022/04/23 17:52:29;;;;;;;14.30;7.90;;;;;;;13.34;48.35;98166.78;106036;1274;24284;-88
2022/04/23 17:55:24;;;;;;;16.10;8.60;;;;;;;13.18;48.37;98168.86;106364;1274;24243;-84
2022/04/23 17:58:15;;;;;;;14.60;8.50;;;;;;;12.99;48.31;98169.10;106222;1273;24360;-84
2022/04/23 18:07:36;;;;;;;18.30;10.10;;;;;;;12.53;48.60;98180.22;106192;1274;22597;-81
2022/04/23 18:10:55;;;;;;;18.00;9.60;;;;;;;12.34;48.76;98185.11;106257;1273;22534;-85
2022/04/23 18:14:09;;;;;;;;;;;;;;;;;;;;;
2022/04/23 18:16:49;;;;;;;19.40;10.20;;;;;;;12.09;49.06;98190.45;106302;1273;24058;-84
2022/04/23 18:19:40;;;;;;;22.00;11.60;;;;;;;12.06;48.92;98191.63;106081;1273;22534;-85
2022/04/23 18:22:52;;;;;;;28.30;13.00;;;;;;;12.01;49.02;98191.66;106067;1274;22561;-87
2022/04/23 18:25:19;;;;;;;26.20;12.90;;;;;;;11.95;48.84;98193.36;106081;1273;22567;-86
2022/04/23 18:28:42;;;;;;;;;;;;;;;;;;;;;
2022/04/23 18:31:49;;;;;;;33.00;16.60;;;;;;;11.67;49.00;98189.24;106167;1273;22605;-84
2022/04/23 18:35:10;;;;;;;40.40;19.20;;;;;;;11.45;49.01;98190.33;106104;1274;25655;-82
2022/04/23 18:38:28;;;;;;;49.80;23.30;;;;;;;11.17;49.34;98188.17;106239;1273;22651;-83
2022/04/23 18:41:54;;;;;;;;;;;;;;;;;;;;;
2022/04/23 18:45:28;;;;;;;63.70;29.70;;;;;;;10.71;49.50;98190.29;105660;1281;26923;-84
2022/04/23 18:48:30;;;;;;;61.70;28.30;;;;;;;10.56;49.92;98190.34;105597;1281;22569;-85
2022/04/23 18:51:46;;;;;;;88.90;34.70;;;;;;;10.36;49.94;98190.77;105273;1281;22634;-88
2022/04/23 18:55:35;;;;;;;78.80;32.90;;;;;;;10.14;49.98;98190.27;105090;1287;22724;-85
2022/04/23 18:58:53;;;;;;;;;;;;;;;;;;;;;
2022/04/23 19:02:00;;;;;;;132.50;48.50;;;;;;;9.81;50.15;98182.02;104950;1287;25312;-84
2022/04/23 19:05:16;;;;;;;;;;;;;;;;;;;;;
2022/04/23 19:08:36;;;;;;;;;;;;;;;;;;;;;
2022/04/23 19:11:36;;;;;;;112.50;50.00;;;;;;;9.45;50.77;98178.89;105161;1287;22565;-84
2022/04/23 19:15:40;;;;;;;98.30;47.50;;;;;;;9.37;50.80;98180.83;105002;1287;24386;-83
2022/04/23 19:29:39;;;;;;;37.40;19.90;;;;;;;9.05;51.06;98167.98;105250;1287;22576;-83
2022/04/23 19:37:07;;;;;;;;;;;;;;;;;;;;;
2022/04/23 19:40:13;;;;;;;;;;;;;;;;;;;;;
2022/04/23 19:43:25;;;;;;;;;;;;;;;;;;;;;
2022/04/23 19:46:36;;;;;;;;;;;;;;;;;;;;;
2022/04/23 19:49:57;;;;;;;;;;;;;;;;;;;;;
2022/04/23 19:53:58;;;;;;;30.90;15.70;;;;;;;8.60;51.36;98158.21;105396;1285;22687;-84
2022/04/23 19:57:48;;;;;;;;;;;;;;;;;;;;;
2022/04/23 20:00:49;;;;;;;31.80;16.90;;;;;;;8.45;51.55;98158.37;105797;1279;22714;-83
2022/04/23 20:07:23;;;;;;;46.30;19.10;;;;;;;8.41;51.70;98154.05;106031;1279;22559;-85
2022/04/23 20:10:22;;;;;;;;;;;;;;;;;;;;;
2022/04/23 20:14:09;;;;;;;45.80;16.10;;;;;;;8.33;51.87;98150.91;105776;1279;22547;-85
2022/04/23 20:18:07;;;;;;;38.90;15.30;;;;;;;8.24;51.80;98153.59;105557;1281;22567;-85
2022/04/23 20:21:35;;;;;;;34.30;14.50;;;;;;;8.20;52.04;98150.90;105761;1281;24646;-85
2022/04/23 20:24:19;;;;;;;39.90;16.40;;;;;;;8.14;52.11;98147.60;106136;1279;22904;-83
2022/04/23 20:28:05;;;;;;;52.10;19.10;;;;;;;8.07;52.07;98149.88;105932;1279;23014;-84
2022/04/23 20:31:08;;;;;;;56.30;23.30;;;;;;;8.01;52.29;98149.98;105739;1279;24133;-83
2022/04/23 20:33:50;;;;;;;59.70;23.60;;;;;;;7.96;52.40;98151.98;105701;1279;22544;-85
2022/04/23 20:40:35;;;;;;;;;;;;;;;;;;;;;
2022/04/23 20:44:03;;;;;;;50.10;20.40;;;;;;;7.80;52.32;98152.09;105088;1285;22722;-84
2022/04/23 20:47:43;;;;;;;48.30;20.00;;;;;;;7.79;52.62;98148.33;105159;1285;22744;-87
2022/04/23 20:51:10;;;;;;;42.80;19.00;;;;;;;7.84;52.92;98153.25;104601;1291;22678;-83
2022/04/23 20:53:58;;;;;;;43.50;19.80;;;;;;;7.79;53.06;98152.86;104528;1291;22510;-83
2022/04/23 20:57:20;;;;;;;47.40;21.00;;;;;;;7.74;52.92;98154.67;105087;1284;24889;-84
2022/04/23 20:59:59;;;;;;;;;;;;;;;;;;;;;